Aviation Digital Data Service (ADDS)

Output produced by METARs form (0854 UTC 23 July 2019)
found at http://www.aviationweather.gov/metar/data/
 
METAR text: ZBAA 230830Z 12003MPS 090V150 CAVOK 36/22 Q0996 NOSIG
Conditions at: ZBAA (BEIJING/PEKING , CN) observed 0830 UTC 23 July 2019
Temperature: 36.0°C (97°F)
Dewpoint: 22.0°C (72°F) [RH = 45%]
Pressure (altimeter): 29.41 inches Hg (996.0 mb)
Winds: from the ESE (120 degrees) at 7 MPH (6 knots; 3.1 m/s)
Visibility: 6 or more miles (10+ km)
Ceiling: ceiling and visibility are OK
Clouds: unknown
Weather: no significant weather observed at this time

METAR text: ZBAA 230800Z 15003MPS 100V220 CAVOK 35/22 Q0996 NOSIG
Conditions at: ZBAA (BEIJING/PEKING , CN) observed 0800 UTC 23 July 2019
Temperature: 35.0°C (95°F)
Dewpoint: 22.0°C (72°F) [RH = 47%]
Pressure (altimeter): 29.41 inches Hg (996.0 mb)
Winds: from the SSE (150 degrees) at 7 MPH (6 knots; 3.1 m/s)
Visibility: 6 or more miles (10+ km)
Ceiling: ceiling and visibility are OK
Clouds: unknown
Weather: no significant weather observed at this time

METAR text: ZBAA 230730Z VRB01MPS CAVOK 36/21 Q0996 NOSIG
Conditions at: ZBAA (BEIJING/PEKING , CN) observed 0730 UTC 23 July 2019
Temperature: 36.0°C (97°F)
Dewpoint: 21.0°C (70°F) [RH = 42%]
Pressure (altimeter): 29.41 inches Hg (996.0 mb)
Winds: variable direction winds at 2 MPH (2 knots; 1.0 m/s)
Visibility: 6 or more miles (10+ km)
Ceiling: ceiling and visibility are OK
Clouds: unknown
Weather: no significant weather observed at this time

METAR text: ZBAA 230700Z 06002MPS 030V150 CAVOK 35/21 Q0996 NOSIG
Conditions at: ZBAA (BEIJING/PEKING , CN) observed 0700 UTC 23 July 2019
Temperature: 35.0°C (95°F)
Dewpoint: 21.0°C (70°F) [RH = 44%]
Pressure (altimeter): 29.41 inches Hg (996.0 mb)
Winds: from the ENE (60 degrees) at 5 MPH (4 knots; 2.1 m/s)
Visibility: 6 or more miles (10+ km)
Ceiling: ceiling and visibility are OK
Clouds: unknown
Weather: no significant weather observed at this time

METAR text: ZBAA 230630Z VRB02MPS CAVOK 35/21 Q0996 NOSIG
Conditions at: ZBAA (BEIJING/PEKING , CN) observed 0630 UTC 23 July 2019
Temperature: 35.0°C (95°F)
Dewpoint: 21.0°C (70°F) [RH = 44%]
Pressure (altimeter): 29.41 inches Hg (996.0 mb)
Winds: variable direction winds at 5 MPH (4 knots; 2.1 m/s)
Visibility: 6 or more miles (10+ km)
Ceiling: ceiling and visibility are OK
Clouds: unknown
Weather: no significant weather observed at this time

METAR text: ZBAA 230600Z VRB02MPS CAVOK 35/21 Q0997 NOSIG
Conditions at: ZBAA (BEIJING/PEKING , CN) observed 0600 UTC 23 July 2019
Temperature: 35.0°C (95°F)
Dewpoint: 21.0°C (70°F) [RH = 44%]
Pressure (altimeter): 29.44 inches Hg (997.0 mb)
Winds: variable direction winds at 5 MPH (4 knots; 2.1 m/s)
Visibility: 6 or more miles (10+ km)
Ceiling: ceiling and visibility are OK
Clouds: unknown
Weather: no significant weather observed at this time

METAR text: ZBAA 230530Z VRB01MPS CAVOK 34/20 Q0997 NOSIG
Conditions at: ZBAA (BEIJING/PEKING , CN) observed 0530 UTC 23 July 2019
Temperature: 34.0°C (93°F)
Dewpoint: 20.0°C (68°F) [RH = 44%]
Pressure (altimeter): 29.44 inches Hg (997.0 mb)
Winds: variable direction winds at 2 MPH (2 knots; 1.0 m/s)
Visibility: 6 or more miles (10+ km)
Ceiling: ceiling and visibility are OK
Clouds: unknown
Weather: no significant weather observed at this time

METAR text: ZBAA 230500Z 29002G07MPS 200V360 CAVOK 34/20 Q0997 NOSIG
Conditions at: ZBAA (BEIJING/PEKING , CN) observed 0500 UTC 23 July 2019
Temperature: 34.0°C (93°F)
Dewpoint: 20.0°C (68°F) [RH = 44%]
Pressure (altimeter): 29.44 inches Hg (997.0 mb)
Winds: from the WNW (290 degrees) at 5 MPH (4 knots; 2.1 m/s)
gusting to 16 MPH (14 knots; 7.2 m/s)
Visibility: 6 or more miles (10+ km)
Ceiling: ceiling and visibility are OK
Clouds: unknown
Weather: no significant weather observed at this time

METAR text: ZBAA 230430Z VRB02MPS CAVOK 34/21 Q0997 NOSIG
Conditions at: ZBAA (BEIJING/PEKING , CN) observed 0430 UTC 23 July 2019
Temperature: 34.0°C (93°F)
Dewpoint: 21.0°C (70°F) [RH = 47%]
Pressure (altimeter): 29.44 inches Hg (997.0 mb)
Winds: variable direction winds at 5 MPH (4 knots; 2.1 m/s)
Visibility: 6 or more miles (10+ km)
Ceiling: ceiling and visibility are OK
Clouds: unknown
Weather: no significant weather observed at this time

METAR text: ZBAA 230400Z 34003MPS 290V020 CAVOK 34/21 Q0997 NOSIG
Conditions at: ZBAA (BEIJING/PEKING , CN) observed 0400 UTC 23 July 2019
Temperature: 34.0°C (93°F)
Dewpoint: 21.0°C (70°F) [RH = 47%]
Pressure (altimeter): 29.44 inches Hg (997.0 mb)
Winds: from the NNW (340 degrees) at 7 MPH (6 knots; 3.1 m/s)
Visibility: 6 or more miles (10+ km)
Ceiling: ceiling and visibility are OK
Clouds: unknown
Weather: no significant weather observed at this time

METAR text: ZBAA 230330Z 02002MPS 330V090 CAVOK 32/21 Q0997 NOSIG
Conditions at: ZBAA (BEIJING/PEKING , CN) observed 0330 UTC 23 July 2019
Temperature: 32.0°C (90°F)
Dewpoint: 21.0°C (70°F) [RH = 52%]
Pressure (altimeter): 29.44 inches Hg (997.0 mb)
Winds: from the NNE (20 degrees) at 5 MPH (4 knots; 2.1 m/s)
Visibility: 6 or more miles (10+ km)
Ceiling: ceiling and visibility are OK
Clouds: unknown
Weather: no significant weather observed at this time

METAR text: ZBAA 230300Z VRB02MPS CAVOK 32/21 Q0998 NOSIG
Conditions at: ZBAA (BEIJING/PEKING , CN) observed 0300 UTC 23 July 2019
Temperature: 32.0°C (90°F)
Dewpoint: 21.0°C (70°F) [RH = 52%]
Pressure (altimeter): 29.47 inches Hg (998.0 mb)
Winds: variable direction winds at 5 MPH (4 knots; 2.1 m/s)
Visibility: 6 or more miles (10+ km)
Ceiling: ceiling and visibility are OK
Clouds: unknown
Weather: no significant weather observed at this time

METAR text: ZBAA 230230Z VRB03MPS CAVOK 31/21 Q0998 NOSIG
Conditions at: ZBAA (BEIJING/PEKING , CN) observed 0230 UTC 23 July 2019
Temperature: 31.0°C (88°F)
Dewpoint: 21.0°C (70°F) [RH = 55%]
Pressure (altimeter): 29.47 inches Hg (998.0 mb)
Winds: variable direction winds at 7 MPH (6 knots; 3.1 m/s)
Visibility: 6 or more miles (10+ km)
Ceiling: ceiling and visibility are OK
Clouds: unknown
Weather: no significant weather observed at this time

METAR text: ZBAA 230200Z 34003MPS 260V030 CAVOK 31/22 Q0998 NOSIG
Conditions at: ZBAA (BEIJING/PEKING , CN) observed 0200 UTC 23 July 2019
Temperature: 31.0°C (88°F)
Dewpoint: 22.0°C (72°F) [RH = 59%]
Pressure (altimeter): 29.47 inches Hg (998.0 mb)
Winds: from the NNW (340 degrees) at 7 MPH (6 knots; 3.1 m/s)
Visibility: 6 or more miles (10+ km)
Ceiling: ceiling and visibility are OK
Clouds: unknown
Weather: no significant weather observed at this time

METAR text: ZBAA 230130Z 02003MPS 350V060 CAVOK 30/22 Q0998 NOSIG
Conditions at: ZBAA (BEIJING/PEKING , CN) observed 0130 UTC 23 July 2019
Temperature: 30.0°C (86°F)
Dewpoint: 22.0°C (72°F) [RH = 62%]
Pressure (altimeter): 29.47 inches Hg (998.0 mb)
Winds: from the NNE (20 degrees) at 7 MPH (6 knots; 3.1 m/s)
Visibility: 6 or more miles (10+ km)
Ceiling: ceiling and visibility are OK
Clouds: unknown
Weather: no significant weather observed at this time

METAR text: ZBAA 230100Z 33005MPS 290V350 CAVOK 30/21 Q0998 NOSIG
Conditions at: ZBAA (BEIJING/PEKING , CN) observed 0100 UTC 23 July 2019
Temperature: 30.0°C (86°F)
Dewpoint: 21.0°C (70°F) [RH = 59%]
Pressure (altimeter): 29.47 inches Hg (998.0 mb)
Winds: from the NNW (330 degrees) at 12 MPH (10 knots; 5.1 m/s)
Visibility: 6 or more miles (10+ km)
Ceiling: ceiling and visibility are OK
Clouds: unknown
Weather: no significant weather observed at this time

METAR text: ZBAA 230030Z 34005MPS CAVOK 29/22 Q0998 NOSIG
Conditions at: ZBAA (BEIJING/PEKING , CN) observed 0030 UTC 23 July 2019
Temperature: 29.0°C (84°F)
Dewpoint: 22.0°C (72°F) [RH = 66%]
Pressure (altimeter): 29.47 inches Hg (998.0 mb)
Winds: from the NNW (340 degrees) at 12 MPH (10 knots; 5.1 m/s)
Visibility: 6 or more miles (10+ km)
Ceiling: ceiling and visibility are OK
Clouds: unknown
Weather: no significant weather observed at this time

METAR text: ZBAA 230000Z 35003MPS 310V020 6000 NSC 28/24 Q0998 NOSIG
Conditions at: ZBAA (BEIJING/PEKING , CN) observed 0000 UTC 23 July 2019
Temperature: 28.0°C (82°F)
Dewpoint: 24.0°C (75°F) [RH = 79%]
Pressure (altimeter): 29.47 inches Hg (998.0 mb)
Winds: from the N (350 degrees) at 7 MPH (6 knots; 3.1 m/s)
Visibility: 4 miles ( 6 km)
Ceiling: at least 12,000 feet AGL
Clouds: sky clear below 12,000 feet AGL
Weather: no significant weather observed at this time

METAR text: ZBAA 222330Z 01003MPS 340V040 4000 BR NSC 26/24 Q0999 NOSIG
Conditions at: ZBAA (BEIJING/PEKING , CN) observed 2330 UTC 22 July 2019
Temperature: 26.0°C (79°F)
Dewpoint: 24.0°C (75°F) [RH = 89%]
Pressure (altimeter): 29.50 inches Hg (999.0 mb)
Winds: from the N (10 degrees) at 7 MPH (6 knots; 3.1 m/s)
Visibility: 2.49 miles (4.01 km)
Ceiling: at least 12,000 feet AGL
Clouds: sky clear below 12,000 feet AGL
Weather: BR  (mist)

METAR text: ZBAA 222300Z 35003MPS 2800 BR NSC 26/24 Q0998 BECMG TL2340 3500
Conditions at: ZBAA (BEIJING/PEKING , CN) observed 2300 UTC 22 July 2019
Temperature: 26.0°C (79°F)
Dewpoint: 24.0°C (75°F) [RH = 89%]
Pressure (altimeter): 29.47 inches Hg (998.0 mb)
Winds: from the N (350 degrees) at 7 MPH (6 knots; 3.1 m/s)
Visibility: 1.74 miles (2.80 km)
Ceiling: at least 12,000 feet AGL
Clouds: sky clear below 12,000 feet AGL
Weather: BR  (mist)

METAR text: ZBAA 222230Z VRB02MPS 4000 BR NSC 25/24 Q0998 NOSIG
Conditions at: ZBAA (BEIJING/PEKING , CN) observed 2230 UTC 22 July 2019
Temperature: 25.0°C (77°F)
Dewpoint: 24.0°C (75°F) [RH = 94%]
Pressure (altimeter): 29.47 inches Hg (998.0 mb)
Winds: variable direction winds at 5 MPH (4 knots; 2.1 m/s)
Visibility: 2.49 miles (4.01 km)
Ceiling: at least 12,000 feet AGL
Clouds: sky clear below 12,000 feet AGL
Weather: BR  (mist)

METAR text: ZBAA 222200Z VRB01MPS 4000 BR NSC 24/24 Q0998 BECMG TL2320 2800 BR
Conditions at: ZBAA (BEIJING/PEKING , CN) observed 2200 UTC 22 July 2019
Temperature: 24.0°C (75°F)
Dewpoint: 24.0°C (75°F) [RH = 100%]
Pressure (altimeter): 29.47 inches Hg (998.0 mb)
Winds: variable direction winds at 2 MPH (2 knots; 1.0 m/s)
Visibility: 2.49 miles (4.01 km)
Ceiling: at least 12,000 feet AGL
Clouds: sky clear below 12,000 feet AGL
Weather: BR  (mist)

METAR text: ZBAA 222130Z 00000MPS 6000 NSC 24/24 Q0998 NOSIG
Conditions at: ZBAA (BEIJING/PEKING , CN) observed 2130 UTC 22 July 2019
Temperature: 24.0°C (75°F)
Dewpoint: 24.0°C (75°F) [RH = 100%]
Pressure (altimeter): 29.47 inches Hg (998.0 mb)
Winds: calm
Visibility: 4 miles ( 6 km)
Ceiling: at least 12,000 feet AGL
Clouds: sky clear below 12,000 feet AGL
Weather: no significant weather observed at this time

METAR text: ZBAA 222100Z VRB01MPS 6000 NSC 24/24 Q0998 NOSIG
Conditions at: ZBAA (BEIJING/PEKING , CN) observed 2100 UTC 22 July 2019
Temperature: 24.0°C (75°F)
Dewpoint: 24.0°C (75°F) [RH = 100%]
Pressure (altimeter): 29.47 inches Hg (998.0 mb)
Winds: variable direction winds at 2 MPH (2 knots; 1.0 m/s)
Visibility: 4 miles ( 6 km)
Ceiling: at least 12,000 feet AGL
Clouds: sky clear below 12,000 feet AGL
Weather: no significant weather observed at this time

METAR text: ZBAA 222030Z VRB01MPS 4000 -RA BR FEW015 OVC040 24/24 Q0998 NOSIG
Conditions at: ZBAA (BEIJING/PEKING , CN) observed 2030 UTC 22 July 2019
Temperature: 24.0°C (75°F)
Dewpoint: 24.0°C (75°F) [RH = 100%]
Pressure (altimeter): 29.47 inches Hg (998.0 mb)
Winds: variable direction winds at 2 MPH (2 knots; 1.0 m/s)
Visibility: 2.49 miles (4.01 km)
Ceiling: 4000 feet AGL
Clouds: few clouds at 1500 feet AGL
overcast cloud deck at 4000 feet AGL
Weather: -RA BR  (light rain, mist)

METAR text: ZBAA 222000Z 33003MPS 4000 BR OVC040 25/23 Q0998 NOSIG
Conditions at: ZBAA (BEIJING/PEKING , CN) observed 2000 UTC 22 July 2019
Temperature: 25.0°C (77°F)
Dewpoint: 23.0°C (73°F) [RH = 89%]
Pressure (altimeter): 29.47 inches Hg (998.0 mb)
Winds: from the NNW (330 degrees) at 7 MPH (6 knots; 3.1 m/s)
Visibility: 2.49 miles (4.01 km)
Ceiling: 4000 feet AGL
Clouds: overcast cloud deck at 4000 feet AGL
Weather: BR  (mist)

METAR text: ZBAA 221930Z 30003MPS 4000 -RA BR OVC040 25/23 Q0998 NOSIG
Conditions at: ZBAA (BEIJING/PEKING , CN) observed 1930 UTC 22 July 2019
Temperature: 25.0°C (77°F)
Dewpoint: 23.0°C (73°F) [RH = 89%]
Pressure (altimeter): 29.47 inches Hg (998.0 mb)
Winds: from the WNW (300 degrees) at 7 MPH (6 knots; 3.1 m/s)
Visibility: 2.49 miles (4.01 km)
Ceiling: 4000 feet AGL
Clouds: overcast cloud deck at 4000 feet AGL
Weather: -RA BR  (light rain, mist)

METAR text: ZBAA 221900Z 30003MPS 270V340 4000 -RA BR FEW015 OVC040 25/23 Q0998 NOSIG
Conditions at: ZBAA (BEIJING/PEKING , CN) observed 1900 UTC 22 July 2019
Temperature: 25.0°C (77°F)
Dewpoint: 23.0°C (73°F) [RH = 89%]
Pressure (altimeter): 29.47 inches Hg (998.0 mb)
Winds: from the WNW (300 degrees) at 7 MPH (6 knots; 3.1 m/s)
Visibility: 2.49 miles (4.01 km)
Ceiling: 4000 feet AGL
Clouds: few clouds at 1500 feet AGL
overcast cloud deck at 4000 feet AGL
Weather: -RA BR  (light rain, mist)

METAR text: ZBAA 221830Z VRB01MPS 4000 -RA BR FEW015 OVC040 24/24 Q0998 NOSIG
Conditions at: ZBAA (BEIJING/PEKING , CN) observed 1830 UTC 22 July 2019
Temperature: 24.0°C (75°F)
Dewpoint: 24.0°C (75°F) [RH = 100%]
Pressure (altimeter): 29.47 inches Hg (998.0 mb)
Winds: variable direction winds at 2 MPH (2 knots; 1.0 m/s)
Visibility: 2.49 miles (4.01 km)
Ceiling: 4000 feet AGL
Clouds: few clouds at 1500 feet AGL
overcast cloud deck at 4000 feet AGL
Weather: -RA BR  (light rain, mist)

METAR text: ZBAA 221800Z VRB01MPS 5000 -RA BR FEW015 OVC040 24/23 Q0999 NOSIG
Conditions at: ZBAA (BEIJING/PEKING , CN) observed 1800 UTC 22 July 2019
Temperature: 24.0°C (75°F)
Dewpoint: 23.0°C (73°F) [RH = 94%]
Pressure (altimeter): 29.50 inches Hg (999.0 mb)
Winds: variable direction winds at 2 MPH (2 knots; 1.0 m/s)
Visibility: 3 miles ( 5 km)
Ceiling: 4000 feet AGL
Clouds: few clouds at 1500 feet AGL
overcast cloud deck at 4000 feet AGL
Weather: -RA BR  (light rain, mist)

METAR text: ZBAA 221730Z 33002MPS 280V020 5000 -RA BR FEW015 OVC040 24/23 Q0999 NOSIG
Conditions at: ZBAA (BEIJING/PEKING , CN) observed 1730 UTC 22 July 2019
Temperature: 24.0°C (75°F)
Dewpoint: 23.0°C (73°F) [RH = 94%]
Pressure (altimeter): 29.50 inches Hg (999.0 mb)
Winds: from the NNW (330 degrees) at 5 MPH (4 knots; 2.1 m/s)
Visibility: 3 miles ( 5 km)
Ceiling: 4000 feet AGL
Clouds: few clouds at 1500 feet AGL
overcast cloud deck at 4000 feet AGL
Weather: -RA BR  (light rain, mist)

METAR text: ZBAA 221700Z 28003MPS 260V320 5000 -RA BR SCT010 OVC033 24/23 Q0999 NOSIG
Conditions at: ZBAA (BEIJING/PEKING , CN) observed 1700 UTC 22 July 2019
Temperature: 24.0°C (75°F)
Dewpoint: 23.0°C (73°F) [RH = 94%]
Pressure (altimeter): 29.50 inches Hg (999.0 mb)
Winds: from the W (280 degrees) at 7 MPH (6 knots; 3.1 m/s)
Visibility: 3 miles ( 5 km)
Ceiling: 3300 feet AGL
Clouds: scattered clouds at 1000 feet AGL
overcast cloud deck at 3300 feet AGL
Weather: -RA BR  (light rain, mist)

METAR text: ZBAA 221630Z 26005MPS 5000 -SHRA BR SCT010 OVC033 24/23 Q0999 RESHRA NOSIG
Conditions at: ZBAA (BEIJING/PEKING , CN) observed 1630 UTC 22 July 2019
Temperature: 24.0°C (75°F)
Dewpoint: 23.0°C (73°F) [RH = 94%]
Pressure (altimeter): 29.50 inches Hg (999.0 mb)
Winds: from the W (260 degrees) at 12 MPH (10 knots; 5.1 m/s)
Visibility: 3 miles ( 5 km)
Ceiling: 3300 feet AGL
Clouds: scattered clouds at 1000 feet AGL
overcast cloud deck at 3300 feet AGL
Weather: -SHRA BR  (light rain showers, mist)

METAR text: ZBAA 221600Z 02002MPS 350V070 3500 -SHRA BR FEW010 OVC033 24/24 Q0999 RESHRA BECMG TL1620 2800 SHRA BR
Conditions at: ZBAA (BEIJING/PEKING , CN) observed 1600 UTC 22 July 2019
Temperature: 24.0°C (75°F)
Dewpoint: 24.0°C (75°F) [RH = 100%]
Pressure (altimeter): 29.50 inches Hg (999.0 mb)
Winds: from the NNE (20 degrees) at 5 MPH (4 knots; 2.1 m/s)
Visibility: 2.17 miles (3.49 km)
Ceiling: 3300 feet AGL
Clouds: few clouds at 1000 feet AGL
overcast cloud deck at 3300 feet AGL
Weather: -SHRA BR  (light rain showers, mist)

METAR text: ZBAA 221530Z 28007MPS 230V320 2500 SHRA BR FEW010 OVC033 24/23 Q1000 NOSIG
Conditions at: ZBAA (BEIJING/PEKING , CN) observed 1530 UTC 22 July 2019
Temperature: 24.0°C (75°F)
Dewpoint: 23.0°C (73°F) [RH = 94%]
Pressure (altimeter): 29.53 inches Hg (1000.0 mb)
Winds: from the W (280 degrees) at 16 MPH (14 knots; 7.2 m/s)
Visibility: 1.55 miles (2.49 km)
Ceiling: 3300 feet AGL
Clouds: few clouds at 1000 feet AGL
overcast cloud deck at 3300 feet AGL
Weather: SHRA BR  (rain showers, mist)

METAR text: ZBAA 221500Z 31003MPS 280V350 3200 -SHRA BR FEW010 OVC033 25/24 Q1000 BECMG TL1540 2800 SHRA BR
Conditions at: ZBAA (BEIJING/PEKING , CN) observed 1500 UTC 22 July 2019
Temperature: 25.0°C (77°F)
Dewpoint: 24.0°C (75°F) [RH = 94%]
Pressure (altimeter): 29.53 inches Hg (1000.0 mb)
Winds: from the NW (310 degrees) at 7 MPH (6 knots; 3.1 m/s)
Visibility: 1.99 miles (3.20 km)
Ceiling: 3300 feet AGL
Clouds: few clouds at 1000 feet AGL
overcast cloud deck at 3300 feet AGL
Weather: -SHRA BR  (light rain showers, mist)

METAR text: ZBAA 221430Z 28006MPS 270V330 3200 -SHRA BR OVC033 25/24 Q1000 NOSIG
Conditions at: ZBAA (BEIJING/PEKING , CN) observed 1430 UTC 22 July 2019
Temperature: 25.0°C (77°F)
Dewpoint: 24.0°C (75°F) [RH = 94%]
Pressure (altimeter): 29.53 inches Hg (1000.0 mb)
Winds: from the W (280 degrees) at 14 MPH (12 knots; 6.2 m/s)
Visibility: 1.99 miles (3.20 km)
Ceiling: 3300 feet AGL
Clouds: overcast cloud deck at 3300 feet AGL
Weather: -SHRA BR  (light rain showers, mist)

METAR text: ZBAA 221400Z VRB01MPS 3200 -SHRA BR OVC033 28/26 Q1000 BECMG TL1520 2800 -SHRA BR
Conditions at: ZBAA (BEIJING/PEKING , CN) observed 1400 UTC 22 July 2019
Temperature: 28.0°C (82°F)
Dewpoint: 26.0°C (79°F) [RH = 89%]
Pressure (altimeter): 29.53 inches Hg (1000.0 mb)
Winds: variable direction winds at 2 MPH (2 knots; 1.0 m/s)
Visibility: 1.99 miles (3.20 km)
Ceiling: 3300 feet AGL
Clouds: overcast cloud deck at 3300 feet AGL
Weather: -SHRA BR  (light rain showers, mist)

METAR text: ZBAA 221330Z VRB01MPS 3500 -SHRA BR OVC040 28/26 Q1000 NOSIG
Conditions at: ZBAA (BEIJING/PEKING , CN) observed 1330 UTC 22 July 2019
Temperature: 28.0°C (82°F)
Dewpoint: 26.0°C (79°F) [RH = 89%]
Pressure (altimeter): 29.53 inches Hg (1000.0 mb)
Winds: variable direction winds at 2 MPH (2 knots; 1.0 m/s)
Visibility: 2.17 miles (3.49 km)
Ceiling: 4000 feet AGL
Clouds: overcast cloud deck at 4000 feet AGL
Weather: -SHRA BR  (light rain showers, mist)

METAR text: ZBAA 221300Z 13002MPS 4000 -SHRA BR NSC 29/26 Q1000 NOSIG
Conditions at: ZBAA (BEIJING/PEKING , CN) observed 1300 UTC 22 July 2019
Temperature: 29.0°C (84°F)
Dewpoint: 26.0°C (79°F) [RH = 84%]
Pressure (altimeter): 29.53 inches Hg (1000.0 mb)
Winds: from the SE (130 degrees) at 5 MPH (4 knots; 2.1 m/s)
Visibility: 2.49 miles (4.01 km)
Ceiling: at least 12,000 feet AGL
Clouds: sky clear below 12,000 feet AGL
Weather: -SHRA BR  (light rain showers, mist)

METAR text: ZBAA 221230Z VRB01MPS 4000 BR NSC 29/26 Q1000 NOSIG
Conditions at: ZBAA (BEIJING/PEKING , CN) observed 1230 UTC 22 July 2019
Temperature: 29.0°C (84°F)
Dewpoint: 26.0°C (79°F) [RH = 84%]
Pressure (altimeter): 29.53 inches Hg (1000.0 mb)
Winds: variable direction winds at 2 MPH (2 knots; 1.0 m/s)
Visibility: 2.49 miles (4.01 km)
Ceiling: at least 12,000 feet AGL
Clouds: sky clear below 12,000 feet AGL
Weather: BR  (mist)

METAR text: ZBAA 221200Z 10002MPS 070V130 3500 BR NSC 29/26 Q1000 NOSIG
Conditions at: ZBAA (BEIJING/PEKING , CN) observed 1200 UTC 22 July 2019
Temperature: 29.0°C (84°F)
Dewpoint: 26.0°C (79°F) [RH = 84%]
Pressure (altimeter): 29.53 inches Hg (1000.0 mb)
Winds: from the E (100 degrees) at 5 MPH (4 knots; 2.1 m/s)
Visibility: 2.17 miles (3.49 km)
Ceiling: at least 12,000 feet AGL
Clouds: sky clear below 12,000 feet AGL
Weather: BR  (mist)

METAR text: ZBAA 221130Z 08001MPS 3100 -SHRA BR NSC 29/26 Q1000 NOSIG
Conditions at: ZBAA (BEIJING/PEKING , CN) observed 1130 UTC 22 July 2019
Temperature: 29.0°C (84°F)
Dewpoint: 26.0°C (79°F) [RH = 84%]
Pressure (altimeter): 29.53 inches Hg (1000.0 mb)
Winds: from the E (80 degrees) at 2 MPH (2 knots; 1.0 m/s)
Visibility: 1.93 miles (3.11 km)
Ceiling: at least 12,000 feet AGL
Clouds: sky clear below 12,000 feet AGL
Weather: -SHRA BR  (light rain showers, mist)

METAR text: ZBAA 221100Z 09001MPS 2800 BR NSC 30/26 Q1000 BECMG TL1140 3200
Conditions at: ZBAA (BEIJING/PEKING , CN) observed 1100 UTC 22 July 2019
Temperature: 30.0°C (86°F)
Dewpoint: 26.0°C (79°F) [RH = 79%]
Pressure (altimeter): 29.53 inches Hg (1000.0 mb)
Winds: from the E (90 degrees) at 2 MPH (2 knots; 1.0 m/s)
Visibility: 1.74 miles (2.80 km)
Ceiling: at least 12,000 feet AGL
Clouds: sky clear below 12,000 feet AGL
Weather: BR  (mist)

METAR text: ZBAA 221030Z 09001MPS 2800 -SHRA BR NSC 30/26 Q1000 NOSIG
Conditions at: ZBAA (BEIJING/PEKING , CN) observed 1030 UTC 22 July 2019
Temperature: 30.0°C (86°F)
Dewpoint: 26.0°C (79°F) [RH = 79%]
Pressure (altimeter): 29.53 inches Hg (1000.0 mb)
Winds: from the E (90 degrees) at 2 MPH (2 knots; 1.0 m/s)
Visibility: 1.74 miles (2.80 km)
Ceiling: at least 12,000 feet AGL
Clouds: sky clear below 12,000 feet AGL
Weather: -SHRA BR  (light rain showers, mist)

METAR text: ZBAA 221000Z 09002MPS 2800 -SHRA BR NSC 30/26 Q1000 BECMG TL1140 3200
Conditions at: ZBAA (BEIJING/PEKING , CN) observed 1000 UTC 22 July 2019
Temperature: 30.0°C (86°F)
Dewpoint: 26.0°C (79°F) [RH = 79%]
Pressure (altimeter): 29.53 inches Hg (1000.0 mb)
Winds: from the E (90 degrees) at 5 MPH (4 knots; 2.1 m/s)
Visibility: 1.74 miles (2.80 km)
Ceiling: at least 12,000 feet AGL
Clouds: sky clear below 12,000 feet AGL
Weather: -SHRA BR  (light rain showers, mist)

METAR text: ZBAA 220930Z 09002MPS 060V150 2800 -SHRA BR NSC 30/27 Q1000 NOSIG
Conditions at: ZBAA (BEIJING/PEKING , CN) observed 0930 UTC 22 July 2019
Temperature: 30.0°C (86°F)
Dewpoint: 27.0°C (81°F) [RH = 84%]
Pressure (altimeter): 29.53 inches Hg (1000.0 mb)
Winds: from the E (90 degrees) at 5 MPH (4 knots; 2.1 m/s)
Visibility: 1.74 miles (2.80 km)
Ceiling: at least 12,000 feet AGL
Clouds: sky clear below 12,000 feet AGL
Weather: -SHRA BR  (light rain showers, mist)

METAR text: ZBAA 220900Z 19002MPS 150V240 2800 -SHRA BR NSC 31/25 Q1000 NOSIG
Conditions at: ZBAA (BEIJING/PEKING , CN) observed 0900 UTC 22 July 2019
Temperature: 31.0°C (88°F)
Dewpoint: 25.0°C (77°F) [RH = 71%]
Pressure (altimeter): 29.53 inches Hg (1000.0 mb)
Winds: from the S (190 degrees) at 5 MPH (4 knots; 2.1 m/s)
Visibility: 1.74 miles (2.80 km)
Ceiling: at least 12,000 feet AGL
Clouds: sky clear below 12,000 feet AGL
Weather: -SHRA BR  (light rain showers, mist)

METAR text: ZBAA 220830Z 14002MPS 2800 -SHRA BR NSC 31/25 Q1000 NOSIG
Conditions at: ZBAA (BEIJING/PEKING , CN) observed 0830 UTC 22 July 2019
Temperature: 31.0°C (88°F)
Dewpoint: 25.0°C (77°F) [RH = 71%]
Pressure (altimeter): 29.53 inches Hg (1000.0 mb)
Winds: from the SE (140 degrees) at 5 MPH (4 knots; 2.1 m/s)
Visibility: 1.74 miles (2.80 km)
Ceiling: at least 12,000 feet AGL
Clouds: sky clear below 12,000 feet AGL
Weather: -SHRA BR  (light rain showers, mist)

METAR text: ZBAA 220800Z 13002MPS 070V180 2800 BR NSC 31/25 Q1001 NOSIG
Conditions at: ZBAA (BEIJING/PEKING , CN) observed 0800 UTC 22 July 2019
Temperature: 31.0°C (88°F)
Dewpoint: 25.0°C (77°F) [RH = 71%]
Pressure (altimeter): 29.56 inches Hg (1001.0 mb)
Winds: from the SE (130 degrees) at 5 MPH (4 knots; 2.1 m/s)
Visibility: 1.74 miles (2.80 km)
Ceiling: at least 12,000 feet AGL
Clouds: sky clear below 12,000 feet AGL
Weather: BR  (mist)

METAR text: ZBAA 220730Z 16002MPS 120V240 2800 BR NSC 31/26 Q1001 NOSIG
Conditions at: ZBAA (BEIJING/PEKING , CN) observed 0730 UTC 22 July 2019
Temperature: 31.0°C (88°F)
Dewpoint: 26.0°C (79°F) [RH = 75%]
Pressure (altimeter): 29.56 inches Hg (1001.0 mb)
Winds: from the SSE (160 degrees) at 5 MPH (4 knots; 2.1 m/s)
Visibility: 1.74 miles (2.80 km)
Ceiling: at least 12,000 feet AGL
Clouds: sky clear below 12,000 feet AGL
Weather: BR  (mist)

METAR text: ZBAA 220700Z 09002MPS 050V140 2800 BR NSC 31/26 Q1000 NOSIG
Conditions at: ZBAA (BEIJING/PEKING , CN) observed 0700 UTC 22 July 2019
Temperature: 31.0°C (88°F)
Dewpoint: 26.0°C (79°F) [RH = 75%]
Pressure (altimeter): 29.53 inches Hg (1000.0 mb)
Winds: from the E (90 degrees) at 5 MPH (4 knots; 2.1 m/s)
Visibility: 1.74 miles (2.80 km)
Ceiling: at least 12,000 feet AGL
Clouds: sky clear below 12,000 feet AGL
Weather: BR  (mist)

METAR text: ZBAA 220630Z 06002MPS 030V100 2800 BR NSC 30/26 Q1001 NOSIG
Conditions at: ZBAA (BEIJING/PEKING , CN) observed 0630 UTC 22 July 2019
Temperature: 30.0°C (86°F)
Dewpoint: 26.0°C (79°F) [RH = 79%]
Pressure (altimeter): 29.56 inches Hg (1001.0 mb)
Winds: from the ENE (60 degrees) at 5 MPH (4 knots; 2.1 m/s)
Visibility: 1.74 miles (2.80 km)
Ceiling: at least 12,000 feet AGL
Clouds: sky clear below 12,000 feet AGL
Weather: BR  (mist)

METAR text: ZBAA 220600Z 09002MPS 050V130 2800 BR NSC 30/26 Q1001 NOSIG
Conditions at: ZBAA (BEIJING/PEKING , CN) observed 0600 UTC 22 July 2019
Temperature: 30.0°C (86°F)
Dewpoint: 26.0°C (79°F) [RH = 79%]
Pressure (altimeter): 29.56 inches Hg (1001.0 mb)
Winds: from the E (90 degrees) at 5 MPH (4 knots; 2.1 m/s)
Visibility: 1.74 miles (2.80 km)
Ceiling: at least 12,000 feet AGL
Clouds: sky clear below 12,000 feet AGL
Weather: BR  (mist)

METAR text: ZBAA 220530Z VRB01MPS 2800 BR NSC 31/26 Q1001 NOSIG
Conditions at: ZBAA (BEIJING/PEKING , CN) observed 0530 UTC 22 July 2019
Temperature: 31.0°C (88°F)
Dewpoint: 26.0°C (79°F) [RH = 75%]
Pressure (altimeter): 29.56 inches Hg (1001.0 mb)
Winds: variable direction winds at 2 MPH (2 knots; 1.0 m/s)
Visibility: 1.74 miles (2.80 km)
Ceiling: at least 12,000 feet AGL
Clouds: sky clear below 12,000 feet AGL
Weather: BR  (mist)

METAR text: ZBAA 220500Z 10002MPS 3000 BR NSC 30/25 Q1002 BECMG TL0540 2800 BR
Conditions at: ZBAA (BEIJING/PEKING , CN) observed 0500 UTC 22 July 2019
Temperature: 30.0°C (86°F)
Dewpoint: 25.0°C (77°F) [RH = 75%]
Pressure (altimeter): 29.59 inches Hg (1002.0 mb)
Winds: from the E (100 degrees) at 5 MPH (4 knots; 2.1 m/s)
Visibility: 1.86 miles (2.99 km)
Ceiling: at least 12,000 feet AGL
Clouds: sky clear below 12,000 feet AGL
Weather: BR  (mist)

METAR text: ZBAA 220430Z VRB01MPS 3200 BR NSC 30/25 Q1002 NOSIG
Conditions at: ZBAA (BEIJING/PEKING , CN) observed 0430 UTC 22 July 2019
Temperature: 30.0°C (86°F)
Dewpoint: 25.0°C (77°F) [RH = 75%]
Pressure (altimeter): 29.59 inches Hg (1002.0 mb)
Winds: variable direction winds at 2 MPH (2 knots; 1.0 m/s)
Visibility: 1.99 miles (3.20 km)
Ceiling: at least 12,000 feet AGL
Clouds: sky clear below 12,000 feet AGL
Weather: BR  (mist)

METAR text: ZBAA 220400Z 10002MPS 050V170 3500 BR NSC 30/25 Q1002 BECMG TL0540 2800 BR
Conditions at: ZBAA (BEIJING/PEKING , CN) observed 0400 UTC 22 July 2019
Temperature: 30.0°C (86°F)
Dewpoint: 25.0°C (77°F) [RH = 75%]
Pressure (altimeter): 29.59 inches Hg (1002.0 mb)
Winds: from the E (100 degrees) at 5 MPH (4 knots; 2.1 m/s)
Visibility: 2.17 miles (3.49 km)
Ceiling: at least 12,000 feet AGL
Clouds: sky clear below 12,000 feet AGL
Weather: BR  (mist)

METAR text: ZBAA 220330Z VRB01MPS 3800 BR NSC 30/25 Q1002 NOSIG
Conditions at: ZBAA (BEIJING/PEKING , CN) observed 0330 UTC 22 July 2019
Temperature: 30.0°C (86°F)
Dewpoint: 25.0°C (77°F) [RH = 75%]
Pressure (altimeter): 29.59 inches Hg (1002.0 mb)
Winds: variable direction winds at 2 MPH (2 knots; 1.0 m/s)
Visibility: 2.36 miles (3.80 km)
Ceiling: at least 12,000 feet AGL
Clouds: sky clear below 12,000 feet AGL
Weather: BR  (mist)

METAR text: ZBAA 220300Z VRB01MPS 3800 BR NSC 31/25 Q1002 NOSIG
Conditions at: ZBAA (BEIJING/PEKING , CN) observed 0300 UTC 22 July 2019
Temperature: 31.0°C (88°F)
Dewpoint: 25.0°C (77°F) [RH = 71%]
Pressure (altimeter): 29.59 inches Hg (1002.0 mb)
Winds: variable direction winds at 2 MPH (2 knots; 1.0 m/s)
Visibility: 2.36 miles (3.80 km)
Ceiling: at least 12,000 feet AGL
Clouds: sky clear below 12,000 feet AGL
Weather: BR  (mist)

METAR text: ZBAA 220230Z VRB01MPS 3800 BR NSC 31/25 Q1002 NOSIG
Conditions at: ZBAA (BEIJING/PEKING , CN) observed 0230 UTC 22 July 2019
Temperature: 31.0°C (88°F)
Dewpoint: 25.0°C (77°F) [RH = 71%]
Pressure (altimeter): 29.59 inches Hg (1002.0 mb)
Winds: variable direction winds at 2 MPH (2 knots; 1.0 m/s)
Visibility: 2.36 miles (3.80 km)
Ceiling: at least 12,000 feet AGL
Clouds: sky clear below 12,000 feet AGL
Weather: BR  (mist)

METAR text: ZBAA 220200Z VRB01MPS 4000 BR NSC 30/25 Q1002 NOSIG
Conditions at: ZBAA (BEIJING/PEKING , CN) observed 0200 UTC 22 July 2019
Temperature: 30.0°C (86°F)
Dewpoint: 25.0°C (77°F) [RH = 75%]
Pressure (altimeter): 29.59 inches Hg (1002.0 mb)
Winds: variable direction winds at 2 MPH (2 knots; 1.0 m/s)
Visibility: 2.49 miles (4.01 km)
Ceiling: at least 12,000 feet AGL
Clouds: sky clear below 12,000 feet AGL
Weather: BR  (mist)

METAR text: ZBAA 220130Z VRB01MPS 4000 BR NSC 30/25 Q1003 NOSIG
Conditions at: ZBAA (BEIJING/PEKING , CN) observed 0130 UTC 22 July 2019
Temperature: 30.0°C (86°F)
Dewpoint: 25.0°C (77°F) [RH = 75%]
Pressure (altimeter): 29.62 inches Hg (1003.0 mb)
Winds: variable direction winds at 2 MPH (2 knots; 1.0 m/s)
Visibility: 2.49 miles (4.01 km)
Ceiling: at least 12,000 feet AGL
Clouds: sky clear below 12,000 feet AGL
Weather: BR  (mist)

METAR text: ZBAA 220100Z VRB01MPS 4000 BR NSC 30/25 Q1003 NOSIG
Conditions at: ZBAA (BEIJING/PEKING , CN) observed 0100 UTC 22 July 2019
Temperature: 30.0°C (86°F)
Dewpoint: 25.0°C (77°F) [RH = 75%]
Pressure (altimeter): 29.62 inches Hg (1003.0 mb)
Winds: variable direction winds at 2 MPH (2 knots; 1.0 m/s)
Visibility: 2.49 miles (4.01 km)
Ceiling: at least 12,000 feet AGL
Clouds: sky clear below 12,000 feet AGL
Weather: BR  (mist)

METAR text: ZBAA 220030Z 06002MPS 030V090 3500 BR NSC 29/25 Q1002 NOSIG
Conditions at: ZBAA (BEIJING/PEKING , CN) observed 0030 UTC 22 July 2019
Temperature: 29.0°C (84°F)
Dewpoint: 25.0°C (77°F) [RH = 79%]
Pressure (altimeter): 29.59 inches Hg (1002.0 mb)
Winds: from the ENE (60 degrees) at 5 MPH (4 knots; 2.1 m/s)
Visibility: 2.17 miles (3.49 km)
Ceiling: at least 12,000 feet AGL
Clouds: sky clear below 12,000 feet AGL
Weather: BR  (mist)

METAR text: ZBAA 220000Z VRB01MPS 3800 BR NSC 29/25 Q1003 NOSIG
Conditions at: ZBAA (BEIJING/PEKING , CN) observed 0000 UTC 22 July 2019
Temperature: 29.0°C (84°F)
Dewpoint: 25.0°C (77°F) [RH = 79%]
Pressure (altimeter): 29.62 inches Hg (1003.0 mb)
Winds: variable direction winds at 2 MPH (2 knots; 1.0 m/s)
Visibility: 2.36 miles (3.80 km)
Ceiling: at least 12,000 feet AGL
Clouds: sky clear below 12,000 feet AGL
Weather: BR  (mist)

METAR text: ZBAA 212330Z VRB01MPS 4500 BR NSC 29/25 Q1002 NOSIG
Conditions at: ZBAA (BEIJING/PEKING , CN) observed 2330 UTC 21 July 2019
Temperature: 29.0°C (84°F)
Dewpoint: 25.0°C (77°F) [RH = 79%]
Pressure (altimeter): 29.59 inches Hg (1002.0 mb)
Winds: variable direction winds at 2 MPH (2 knots; 1.0 m/s)
Visibility: 2.80 miles (4.51 km)
Ceiling: at least 12,000 feet AGL
Clouds: sky clear below 12,000 feet AGL
Weather: BR  (mist)

METAR text: ZBAA 212300Z 04002MPS 010V070 6000 NSC 28/24 Q1002 NOSIG
Conditions at: ZBAA (BEIJING/PEKING , CN) observed 2300 UTC 21 July 2019
Temperature: 28.0°C (82°F)
Dewpoint: 24.0°C (75°F) [RH = 79%]
Pressure (altimeter): 29.59 inches Hg (1002.0 mb)
Winds: from the NE (40 degrees) at 5 MPH (4 knots; 2.1 m/s)
Visibility: 4 miles ( 6 km)
Ceiling: at least 12,000 feet AGL
Clouds: sky clear below 12,000 feet AGL
Weather: no significant weather observed at this time

METAR text: ZBAA 212230Z VRB01MPS 6000 NSC 28/25 Q1002 NOSIG
Conditions at: ZBAA (BEIJING/PEKING , CN) observed 2230 UTC 21 July 2019
Temperature: 28.0°C (82°F)
Dewpoint: 25.0°C (77°F) [RH = 84%]
Pressure (altimeter): 29.59 inches Hg (1002.0 mb)
Winds: variable direction winds at 2 MPH (2 knots; 1.0 m/s)
Visibility: 4 miles ( 6 km)
Ceiling: at least 12,000 feet AGL
Clouds: sky clear below 12,000 feet AGL
Weather: no significant weather observed at this time

METAR text: ZBAA 212200Z 05002MPS 020V090 6000 NSC 27/25 Q1002 NOSIG
Conditions at: ZBAA (BEIJING/PEKING , CN) observed 2200 UTC 21 July 2019
Temperature: 27.0°C (81°F)
Dewpoint: 25.0°C (77°F) [RH = 89%]
Pressure (altimeter): 29.59 inches Hg (1002.0 mb)
Winds: from the NE (50 degrees) at 5 MPH (4 knots; 2.1 m/s)
Visibility: 4 miles ( 6 km)
Ceiling: at least 12,000 feet AGL
Clouds: sky clear below 12,000 feet AGL
Weather: no significant weather observed at this time

METAR text: ZBAA 212130Z 03001MPS 7000 NSC 27/25 Q1002 NOSIG
Conditions at: ZBAA (BEIJING/PEKING , CN) observed 2130 UTC 21 July 2019
Temperature: 27.0°C (81°F)
Dewpoint: 25.0°C (77°F) [RH = 89%]
Pressure (altimeter): 29.59 inches Hg (1002.0 mb)
Winds: from the NNE (30 degrees) at 2 MPH (2 knots; 1.0 m/s)
Visibility: 4 miles ( 7 km)
Ceiling: at least 12,000 feet AGL
Clouds: sky clear below 12,000 feet AGL
Weather: no significant weather observed at this time

METAR text: ZBAA 212100Z VRB01MPS CAVOK 27/24 Q1002 NOSIG
Conditions at: ZBAA (BEIJING/PEKING , CN) observed 2100 UTC 21 July 2019
Temperature: 27.0°C (81°F)
Dewpoint: 24.0°C (75°F) [RH = 84%]
Pressure (altimeter): 29.59 inches Hg (1002.0 mb)
Winds: variable direction winds at 2 MPH (2 knots; 1.0 m/s)
Visibility: 6 or more miles (10+ km)
Ceiling: ceiling and visibility are OK
Clouds: unknown
Weather: no significant weather observed at this time

Forecast for: ZBAA (BEIJING/PEKING , CN)
Text: TAF ZBAA 230330Z 2306/2406 19004MPS 8000 NSC TX35/2307Z TN25/2321Z
Forecast period: 0600 UTC 23 July 2019 to 0600 UTC 24 July 2019
Forecast type: FROM: standard forecast or significant change
Winds: from the S (190 degrees) at 9 MPH (8 knots; 4.1 m/s)
Visibility: 5 miles (8 km)
Ceiling: unknown
Clouds: missing
Weather: no significant weather forecast for this period